Time;durP1;ratioP1;P1;durP2;ratioP2;P2;SDS_P1;SDS_P2;PMS_P1;PMS_P2;Temp;Humidity;BMP_temperature;BMP_pressure;BME280_temperature;BME280_humidity;BME280_pressure;Samples;Min_cycle;Max_cycle;Signal;HPM_P1;HPM_P2
2023/02/21 02:14:26;;;;;;;7.55;4.50;;;;;;;;;;5092934;27;20597;-87
2023/02/21 02:16:52;;;;;;;7.05;4.10;;;;;;;;;;5082312;28;20059;-87
2023/02/21 02:19:34;;;;;;;7.50;4.18;;;;;;;;;;5081917;28;20573;-88
2023/02/21 02:22:12;;;;;;;9.43;3.67;;;;;;;;;;5093759;27;20122;-86
2023/02/21 02:24:47;;;;;;;5.90;3.80;;;;;;;;;;5081108;28;20092;-87
2023/02/21 02:27:23;;;;;;;5.75;4.32;;;;;;;;;;5087181;27;20114;-87
2023/02/21 02:29:49;;;;;;;7.03;3.97;;;;;;;;;;5094445;28;20108;-87
2023/02/21 02:32:37;;;;;;;6.82;4.10;;;;;;;;;;5078833;28;20459;-87
2023/02/21 02:35:03;;;;;;;5.72;4.30;;;;;;;;;;5090320;27;20064;-87
2023/02/21 02:37:38;;;;;;;7.68;3.70;;;;;;;;;;5086978;28;20024;-87
2023/02/21 02:40:23;;;;;;;6.25;3.50;;;;;;;;;;5076261;28;20130;-87
2023/02/21 02:42:52;;;;;;;6.82;4.38;;;;;;;;;;5090209;27;20176;-87
2023/02/21 02:45:24;;;;;;;7.15;4.15;;;;;;;;;;5077247;28;20119;-87
2023/02/21 02:47:55;;;;;;;5.88;4.03;;;;;;;;;;5077570;28;20039;-85
2023/02/21 02:50:22;;;;;;;6.55;3.90;;;;;;;;;;5075749;28;20493;-87
2023/02/21 02:52:52;;;;;;;9.23;4.60;;;;;;;;;;5077038;28;20047;-87
2023/02/21 02:55:28;;;;;;;6.00;4.22;;;;;;;;;;5076498;28;20145;-86
2023/02/21 02:57:54;;;;;;;6.45;4.03;;;;;;;;;;5071168;28;20032;-87
2023/02/21 03:00:20;;;;;;;6.47;3.90;;;;;;;;;;5087391;28;20059;-87
2023/02/21 03:03:06;;;;;;;7.65;4.10;;;;;;;;;;5085889;28;20069;-88
2023/02/21 03:05:32;;;;;;;7.55;4.30;;;;;;;;;;5087440;28;20390;-87
2023/02/21 03:07:58;;;;;;;6.75;3.70;;;;;;;;;;5085962;28;20035;-86
2023/02/21 03:10:38;;;;;;;8.82;3.85;;;;;;;;;;5084765;28;20524;-87
2023/02/21 03:13:15;;;;;;;7.82;3.97;;;;;;;;;;5095009;27;20039;-87
2023/02/21 03:15:41;;;;;;;5.68;3.72;;;;;;;;;;5081108;27;20040;-86
2023/02/21 03:18:19;;;;;;;6.90;3.80;;;;;;;;;;5088432;28;20062;-86
2023/02/21 03:20:46;;;;;;;5.93;3.25;;;;;;;;;;5087998;27;20470;-88
2023/02/21 03:23:13;;;;;;;6.10;3.38;;;;;;;;;;5093244;28;20145;-87
2023/02/21 03:25:40;;;;;;;5.53;3.63;;;;;;;;;;5086745;28;20122;-88
2023/02/21 03:28:07;;;;;;;4.80;3.38;;;;;;;;;;5084238;28;20073;-87
2023/02/21 03:30:33;;;;;;;3.88;3.20;;;;;;;;;;5079960;28;20027;-87
2023/02/21 03:33:00;;;;;;;8.00;4.18;;;;;;;;;;5083882;28;20092;-88
2023/02/21 03:35:29;;;;;;;6.68;3.50;;;;;;;;;;5083148;28;20126;-87
2023/02/21 03:37:57;;;;;;;5.68;3.40;;;;;;;;;;5102458;27;20027;-87
2023/02/21 03:40:28;;;;;;;3.40;2.63;;;;;;;;;;5089606;28;20055;-88
2023/02/21 03:42:57;;;;;;;4.40;2.75;;;;;;;;;;5079031;28;20030;-87
2023/02/21 03:45:23;;;;;;;4.80;2.53;;;;;;;;;;5081478;28;20016;-87
2023/02/21 03:47:49;;;;;;;3.95;2.40;;;;;;;;;;5080506;28;20027;-88
2023/02/21 03:50:16;;;;;;;2.88;2.22;;;;;;;;;;5087800;28;20082;-87
2023/02/21 03:52:42;;;;;;;4.60;2.60;;;;;;;;;;5089563;27;20023;-88
2023/02/21 03:55:08;;;;;;;5.88;2.60;;;;;;;;;;5081230;28;20579;-87
2023/02/21 03:57:35;;;;;;;5.90;2.83;;;;;;;;;;5069712;28;20134;-87
2023/02/21 04:00:01;;;;;;;8.45;3.05;;;;;;;;;;5083846;28;20036;-88
2023/02/21 04:02:27;;;;;;;4.18;2.83;;;;;;;;;;5094300;28;20603;-87
2023/02/21 04:04:54;;;;;;;5.13;3.33;;;;;;;;;;5095587;28;20083;-89
2023/02/21 04:07:20;;;;;;;4.45;3.10;;;;;;;;;;5095913;28;20069;-87
2023/02/21 04:09:47;;;;;;;5.95;3.45;;;;;;;;;;5079926;28;20074;-88
2023/02/21 04:12:14;;;;;;;5.88;2.88;;;;;;;;;;5092830;28;20099;-88
2023/02/21 04:14:40;;;;;;;6.80;3.45;;;;;;;;;;5080596;28;20145;-88
2023/02/21 04:17:06;;;;;;;6.93;3.25;;;;;;;;;;5077462;28;20029;-86
2023/02/21 04:19:33;;;;;;;3.70;2.70;;;;;;;;;;5104974;27;20035;-87
2023/02/21 04:21:59;;;;;;;6.60;3.10;;;;;;;;;;5078675;28;20074;-87
2023/02/21 04:24:25;;;;;;;4.13;2.67;;;;;;;;;;5088815;28;20027;-88
2023/02/21 04:26:52;;;;;;;4.43;2.88;;;;;;;;;;5078861;28;20118;-88
2023/02/21 04:29:18;;;;;;;4.63;2.63;;;;;;;;;;5083395;28;20207;-88
2023/02/21 04:31:44;;;;;;;3.65;2.58;;;;;;;;;;5077686;28;20233;-88
2023/02/21 04:34:10;;;;;;;4.50;2.97;;;;;;;;;;5085594;28;20031;-87
2023/02/21 04:36:39;;;;;;;4.95;2.80;;;;;;;;;;5071928;28;20072;-88
2023/02/21 04:39:06;;;;;;;3.33;2.33;;;;;;;;;;5079274;28;20050;-89
2023/02/21 04:41:33;;;;;;;5.30;2.42;;;;;;;;;;5078516;28;20019;-88
2023/02/21 04:43:59;;;;;;;4.30;2.47;;;;;;;;;;5077128;28;20076;-87
2023/02/21 04:46:25;;;;;;;3.88;2.55;;;;;;;;;;5080518;28;20106;-88
2023/02/21 04:48:51;;;;;;;4.70;3.05;;;;;;;;;;5080051;28;20089;-89
2023/02/21 04:51:19;;;;;;;7.18;2.75;;;;;;;;;;5077962;28;20408;-89
2023/02/21 04:53:49;;;;;;;4.18;2.55;;;;;;;;;;5093025;28;20587;-88
2023/02/21 04:56:17;;;;;;;4.10;2.33;;;;;;;;;;5082308;28;20074;-89
2023/02/21 04:58:44;;;;;;;3.45;2.28;;;;;;;;;;5092422;28;20047;-88
2023/02/21 05:01:11;;;;;;;7.00;2.67;;;;;;;;;;5079451;28;20368;-89
2023/02/21 05:03:37;;;;;;;4.15;2.28;;;;;;;;;;5088708;27;20027;-89
2023/02/21 05:06:03;;;;;;;3.63;2.33;;;;;;;;;;5085640;28;20019;-90
2023/02/21 05:08:29;;;;;;;4.55;2.28;;;;;;;;;;5080683;28;20039;-88
2023/02/21 05:10:56;;;;;;;3.65;2.20;;;;;;;;;;5082675;27;20052;-89
2023/02/21 05:13:22;;;;;;;2.78;2.20;;;;;;;;;;5082867;28;20420;-87
2023/02/21 05:15:49;;;;;;;5.95;2.60;;;;;;;;;;5099447;27;20028;-88
2023/02/21 05:18:21;;;;;;;3.15;2.28;;;;;;;;;;5082412;28;20095;-89
2023/02/21 05:20:47;;;;;;;3.67;2.50;;;;;;;;;;5103464;27;20112;-88
2023/02/21 05:23:15;;;;;;;5.35;2.10;;;;;;;;;;5083758;28;20564;-88
2023/02/21 05:25:42;;;;;;;5.07;2.50;;;;;;;;;;5084872;27;20029;-88
2023/02/21 05:28:08;;;;;;;3.42;2.22;;;;;;;;;;5082655;28;20746;-88
2023/02/21 05:30:34;;;;;;;3.85;2.58;;;;;;;;;;5097761;27;20035;-88
2023/02/21 05:33:00;;;;;;;3.70;2.50;;;;;;;;;;5078834;28;20370;-88
2023/02/21 05:35:27;;;;;;;4.82;2.50;;;;;;;;;;5078725;28;20507;-87
2023/02/21 05:37:53;;;;;;;3.13;2.47;;;;;;;;;;5093826;27;20123;-87
2023/02/21 05:40:21;;;;;;;5.03;2.45;;;;;;;;;;5080283;28;20496;-89
2023/02/21 05:42:47;;;;;;;3.80;2.28;;;;;;;;;;5075327;27;20047;-87
2023/02/21 05:45:13;;;;;;;5.68;2.45;;;;;;;;;;5082441;28;20605;-89
2023/02/21 05:47:40;;;;;;;3.35;2.30;;;;;;;;;;5094896;27;20111;-87
2023/02/21 05:50:06;;;;;;;5.97;2.88;;;;;;;;;;5077367;27;20035;-88
2023/02/21 05:52:32;;;;;;;5.28;2.17;;;;;;;;;;5100499;27;20042;-91
2023/02/21 05:54:58;;;;;;;6.22;2.90;;;;;;;;;;5092321;27;20204;-91
2023/02/21 05:57:25;;;;;;;5.70;2.40;;;;;;;;;;5078401;28;20032;-92
2023/02/21 05:59:51;;;;;;;4.13;2.78;;;;;;;;;;5073697;28;20135;-89
2023/02/21 06:02:17;;;;;;;4.10;2.60;;;;;;;;;;5076413;28;20179;-91
2023/02/21 06:04:47;;;;;;;6.05;2.60;;;;;;;;;;5079835;28;20020;-90
2023/02/21 06:07:14;;;;;;;4.43;2.90;;;;;;;;;;5095210;28;20077;-87
2023/02/21 06:09:40;;;;;;;5.40;2.72;;;;;;;;;;5085276;28;20027;-88
2023/02/21 06:12:06;;;;;;;4.32;2.90;;;;;;;;;;5084689;27;20024;-88
2023/02/21 06:14:32;;;;;;;5.10;2.75;;;;;;;;;;5077558;28;20607;-89
2023/02/21 06:17:01;;;;;;;6.22;2.42;;;;;;;;;;5081957;28;20517;-89
2023/02/21 06:19:27;;;;;;;5.35;3.20;;;;;;;;;;5086911;27;20034;-95
2023/02/21 06:21:53;;;;;;;7.60;3.40;;;;;;;;;;5080770;28;20039;-90
2023/02/21 06:24:19;;;;;;;20.80;10.40;;;;;;;;;;5073460;28;20122;-91
2023/02/21 06:26:45;;;;;;;37.65;25.33;;;;;;;;;;5076336;28;20035;-91
2023/02/21 06:29:12;;;;;;;31.55;21.20;;;;;;;;;;5094154;27;20019;-91
2023/02/21 06:31:38;;;;;;;23.08;17.65;;;;;;;;;;5075362;28;20813;-90
2023/02/21 06:34:08;;;;;;;18.63;12.93;;;;;;;;;;5099544;27;20028;-91
2023/02/21 06:36:34;;;;;;;13.73;9.90;;;;;;;;;;5073512;28;20020;-90
2023/02/21 06:39:00;;;;;;;10.40;8.02;;;;;;;;;;5088613;27;20024;-91
2023/02/21 06:41:28;;;;;;;9.40;6.75;;;;;;;;;;5099474;27;20276;-90
2023/02/21 06:43:55;;;;;;;9.13;6.07;;;;;;;;;;5073341;28;20463;-89
2023/02/21 06:46:22;;;;;;;10.27;6.28;;;;;;;;;;5081036;28;20142;-89
2023/02/21 06:48:48;;;;;;;10.15;6.28;;;;;;;;;;5095159;28;20020;-88
2023/02/21 06:51:15;;;;;;;8.68;5.82;;;;;;;;;;5063391;28;20017;-89
2023/02/21 06:53:41;;;;;;;7.85;5.70;;;;;;;;;;5092209;27;20584;-90
2023/02/21 06:56:08;;;;;;;11.10;6.80;;;;;;;;;;5074484;28;20040;-89
2023/02/21 06:58:34;;;;;;;9.05;6.35;;;;;;;;;;5081472;27;20016;-88
2023/02/21 07:01:01;;;;;;;14.38;7.60;;;;;;;;;;5081939;28;20111;-88
2023/02/21 07:03:27;;;;;;;8.88;6.28;;;;;;;;;;5085084;28;20053;-88
2023/02/21 07:05:53;;;;;;;9.73;6.72;;;;;;;;;;5074069;28;20082;-88
2023/02/21 07:08:20;;;;;;;11.48;7.47;;;;;;;;;;5080984;27;20124;-88
2023/02/21 07:10:46;;;;;;;9.18;6.57;;;;;;;;;;5099991;27;20023;-89
2023/02/21 07:13:13;;;;;;;11.95;7.18;;;;;;;;;;5081413;28;20306;-89
2023/02/21 07:15:39;;;;;;;9.50;6.57;;;;;;;;;;5085800;28;20027;-88
2023/02/21 07:18:05;;;;;;;10.30;6.90;;;;;;;;;;5095631;27;20051;-88
2023/02/21 07:20:32;;;;;;;9.05;6.72;;;;;;;;;;5075679;28;20124;-88
2023/02/21 07:22:58;;;;;;;10.43;6.25;;;;;;;;;;5080798;27;20028;-90
2023/02/21 07:25:24;;;;;;;8.82;6.13;;;;;;;;;;5079722;28;20055;-87
2023/02/21 07:27:54;;;;;;;10.85;7.28;;;;;;;;;;5073895;28;20023;-89
2023/02/21 07:30:20;;;;;;;8.85;6.40;;;;;;;;;;5083196;28;20377;-87
2023/02/21 07:32:46;;;;;;;8.40;5.30;;;;;;;;;;5082529;28;20114;-88
2023/02/21 07:35:12;;;;;;;9.52;6.05;;;;;;;;;;5078188;28;20091;-88
2023/02/21 07:37:38;;;;;;;16.13;9.70;;;;;;;;;;5083349;28;20051;-88
2023/02/21 07:40:08;;;;;;;35.00;24.77;;;;;;;;;;5063227;28;20565;-88
2023/02/21 07:42:34;;;;;;;29.77;19.90;;;;;;;;;;5080008;28;20082;-88
2023/02/21 07:45:00;;;;;;;22.50;15.57;;;;;;;;;;5077695;28;20143;-86
2023/02/21 07:47:27;;;;;;;18.35;12.85;;;;;;;;;;5082500;28;20079;-87
2023/02/21 07:49:53;;;;;;;20.02;13.15;;;;;;;;;;5092673;27;20020;-88
2023/02/21 07:52:21;;;;;;;17.85;9.95;;;;;;;;;;5081789;28;20034;-89
2023/02/21 07:54:47;;;;;;;14.30;9.48;;;;;;;;;;5078314;28;20181;-89
2023/02/21 07:57:15;;;;;;;10.98;8.43;;;;;;;;;;5077378;27;20146;-88
2023/02/21 07:59:41;;;;;;;14.45;9.73;;;;;;;;;;5084360;28;20048;-87
2023/02/21 08:02:09;;;;;;;12.23;8.20;;;;;;;;;;5071257;28;20074;-88
2023/02/21 08:04:35;;;;;;;11.88;8.40;;;;;;;;;;5077399;28;20497;-87
2023/02/21 08:07:02;;;;;;;12.25;8.07;;;;;;;;;;5090672;27;20024;-89
2023/02/21 08:09:28;;;;;;;13.57;9.35;;;;;;;;;;5097127;27;20027;-88
2023/02/21 08:11:55;;;;;;;13.40;9.38;;;;;;;;;;5073894;28;20121;-88
2023/02/21 08:14:21;;;;;;;14.88;9.77;;;;;;;;;;5091481;28;20119;-88
2023/02/21 08:16:47;;;;;;;12.05;8.65;;;;;;;;;;5081612;28;20020;-89
2023/02/21 08:19:16;;;;;;;13.20;9.30;;;;;;;;;;5092494;27;20059;-88
2023/02/21 08:21:48;;;;;;;13.07;9.43;;;;;;;;;;5064397;28;20468;-88
2023/02/21 08:24:14;;;;;;;12.63;8.90;;;;;;;;;;5092339;27;20114;-87
2023/02/21 08:26:41;;;;;;;12.88;8.15;;;;;;;;;;5066738;28;20020;-88
2023/02/21 08:29:08;;;;;;;10.73;8.65;;;;;;;;;;5087790;27;20043;-88
2023/02/21 08:31:38;;;;;;;10.90;8.18;;;;;;;;;;5070805;28;20039;-88
2023/02/21 08:34:05;;;;;;;10.40;8.02;;;;;;;;;;5087569;28;20122;-88
2023/02/21 08:36:35;;;;;;;10.82;7.63;;;;;;;;;;5077548;28;20293;-89
2023/02/21 08:39:01;;;;;;;14.65;8.75;;;;;;;;;;5088795;28;20724;-87
2023/02/21 08:41:37;;;;;;;16.20;9.30;;;;;;;;;;5076535;28;20071;-88
2023/02/21 08:44:04;;;;;;;12.93;8.98;;;;;;;;;;5061176;28;20031;-88
2023/02/21 08:46:30;;;;;;;9.00;7.70;;;;;;;;;;5077452;28;20044;-87
2023/02/21 08:48:57;;;;;;;11.45;7.95;;;;;;;;;;5083173;28;20030;-88
2023/02/21 08:51:26;;;;;;;13.18;8.45;;;;;;;;;;5078495;28;20374;-87
2023/02/21 08:53:52;;;;;;;11.52;7.80;;;;;;;;;;5072494;28;20035;-88
2023/02/21 08:56:23;;;;;;;11.18;7.32;;;;;;;;;;5083574;28;20055;-88
2023/02/21 08:58:49;;;;;;;11.00;6.72;;;;;;;;;;5084159;28;20028;-88
2023/02/21 09:01:15;;;;;;;9.70;6.85;;;;;;;;;;5102069;28;20031;-88
2023/02/21 09:03:42;;;;;;;12.02;7.05;;;;;;;;;;5075541;28;20115;-88
2023/02/21 09:06:08;;;;;;;13.63;8.07;;;;;;;;;;5074423;28;20028;-88
2023/02/21 09:08:39;;;;;;;9.65;6.57;;;;;;;;;;5085279;28;20101;-88
2023/02/21 09:11:05;;;;;;;11.65;7.95;;;;;;;;;;5079024;28;20494;-88
2023/02/21 09:13:31;;;;;;;12.07;7.53;;;;;;;;;;5082003;28;20036;-88
2023/02/21 09:15:58;;;;;;;11.13;7.30;;;;;;;;;;5067936;28;20024;-88
2023/02/21 09:18:24;;;;;;;9.15;6.45;;;;;;;;;;5076400;28;20016;-88
2023/02/21 09:20:52;;;;;;;9.38;5.28;;;;;;;;;;5077729;28;20127;-90
2023/02/21 09:23:19;;;;;;;9.77;5.97;;;;;;;;;;5107667;27;20089;-88
2023/02/21 09:25:45;;;;;;;7.32;5.82;;;;;;;;;;5081432;28;20355;-87
2023/02/21 09:28:12;;;;;;;9.00;5.95;;;;;;;;;;5079776;28;20106;-88
2023/02/21 09:30:38;;;;;;;10.27;5.50;;;;;;;;;;5085289;28;20482;-88
2023/02/21 09:33:04;;;;;;;9.52;5.75;;;;;;;;;;5073330;28;20123;-88
2023/02/21 09:35:30;;;;;;;9.48;5.68;;;;;;;;;;5081382;28;20103;-89
2023/02/21 09:37:57;;;;;;;9.55;6.47;;;;;;;;;;5072674;28;20012;-88
2023/02/21 09:40:28;;;;;;;7.95;6.03;;;;;;;;;;5082073;28;20139;-86
2023/02/21 09:42:56;;;;;;;8.03;5.63;;;;;;;;;;5085923;28;20058;-86
2023/02/21 09:45:23;;;;;;;8.45;5.93;;;;;;;;;;5093659;28;20301;-88
2023/02/21 09:47:52;;;;;;;9.35;6.15;;;;;;;;;;5103067;27;20554;-87
2023/02/21 09:50:20;;;;;;;7.88;6.32;;;;;;;;;;5103328;27;20031;-88
2023/02/21 09:52:46;;;;;;;9.82;6.47;;;;;;;;;;5086064;28;20135;-89
2023/02/21 09:55:13;;;;;;;13.48;6.80;;;;;;;;;;5081663;28;20059;-88
2023/02/21 09:57:39;;;;;;;8.82;6.13;;;;;;;;;;5104164;27;20039;-88
2023/02/21 10:00:31;;;;;;;8.43;5.90;;;;;;;;;;5076422;28;20161;-88
2023/02/21 10:03:16;;;;;;;10.93;5.97;;;;;;;;;;5078237;28;20115;-87
2023/02/21 10:05:48;;;;;;;7.57;5.50;;;;;;;;;;5101133;27;20023;-88
2023/02/21 10:08:37;;;;;;;7.50;5.75;;;;;;;;;;5073467;28;20495;-88
2023/02/21 10:11:22;;;;;;;8.10;6.25;;;;;;;;;;5097211;27;20063;-89
2023/02/21 10:13:54;;;;;;;8.90;5.68;;;;;;;;;;5089978;28;20286;-86
2023/02/21 10:16:23;;;;;;;8.75;5.65;;;;;;;;;;5096915;27;20016;-88
2023/02/21 10:18:56;;;;;;;7.07;5.30;;;;;;;;;;5094927;28;20035;-88
2023/02/21 10:21:28;;;;;;;7.63;5.55;;;;;;;;;;5103616;27;20154;-87
2023/02/21 10:23:56;;;;;;;8.02;5.25;;;;;;;;;;5094691;28;20114;-88
2023/02/21 10:26:30;;;;;;;10.20;6.07;;;;;;;;;;5087056;28;20858;-89
2023/02/21 10:28:57;;;;;;;6.78;4.88;;;;;;;;;;5081304;28;20114;-88
2023/02/21 10:31:36;;;;;;;6.70;5.35;;;;;;;;;;5095593;27;20110;-89
2023/02/21 10:34:06;;;;;;;9.55;5.15;;;;;;;;;;5074695;28;20034;-86
2023/02/21 10:36:32;;;;;;;7.78;5.40;;;;;;;;;;5102004;27;20111;-88
2023/02/21 10:39:15;;;;;;;10.02;6.65;;;;;;;;;;5076493;28;20022;-87
2023/02/21 10:41:42;;;;;;;8.27;5.45;;;;;;;;;;5084156;28;20455;-87
2023/02/21 10:44:30;;;;;;;7.05;4.75;;;;;;;;;;5085738;28;20058;-89
2023/02/21 10:47:09;;;;;;;9.20;5.78;;;;;;;;;;5082906;28;20020;-88
2023/02/21 10:49:47;;;;;;;6.57;4.97;;;;;;;;;;5086535;28;20012;-89
2023/02/21 10:52:16;;;;;;;7.22;4.75;;;;;;;;;;5094671;27;20024;-88
2023/02/21 10:54:58;;;;;;;6.28;4.95;;;;;;;;;;5088383;27;20020;-89
2023/02/21 10:57:25;;;;;;;7.47;4.47;;;;;;;;;;5082395;28;20486;-88
2023/02/21 10:59:52;;;;;;;10.15;6.25;;;;;;;;;;5088337;27;20130;-88
2023/02/21 11:02:30;;;;;;;8.50;5.82;;;;;;;;;;5093255;27;20015;-89
2023/02/21 11:05:06;;;;;;;7.47;5.60;;;;;;;;;;5084575;27;20194;-89
2023/02/21 11:07:32;;;;;;;9.35;6.88;;;;;;;;;;5083152;28;20031;-89
2023/02/21 11:09:59;;;;;;;7.32;5.03;;;;;;;;;;5090306;27;20465;-89
2023/02/21 11:12:28;;;;;;;8.57;4.85;;;;;;;;;;5081789;28;20015;-88
2023/02/21 11:14:57;;;;;;;6.22;4.80;;;;;;;;;;5086567;28;20035;-88
2023/02/21 11:17:24;;;;;;;7.38;4.25;;;;;;;;;;5082457;28;20329;-89
2023/02/21 11:19:51;;;;;;;5.45;3.63;;;;;;;;;;5084157;28;20039;-89
2023/02/21 11:22:18;;;;;;;8.55;3.88;;;;;;;;;;5098489;27;20016;-87
2023/02/21 11:24:51;;;;;;;5.10;3.83;;;;;;;;;;5100465;27;20015;-87
2023/02/21 11:27:17;;;;;;;8.30;5.35;;;;;;;;;;5082361;28;20024;-87
2023/02/21 11:29:46;;;;;;;7.70;5.97;;;;;;;;;;5081513;27;20050;-87
2023/02/21 11:32:19;;;;;;;11.52;6.32;;;;;;;;;;5091696;28;20058;-88
2023/02/21 11:34:47;;;;;;;10.32;5.90;;;;;;;;;;5078790;28;20063;-88
2023/02/21 11:37:14;;;;;;;9.88;6.32;;;;;;;;;;5092018;27;20012;-89
2023/02/21 11:39:40;;;;;;;6.78;5.70;;;;;;;;;;5082938;28;20020;-88
2023/02/21 11:42:27;;;;;;;9.32;6.45;;;;;;;;;;5087780;27;20034;-89
2023/02/21 11:45:12;;;;;;;9.07;6.35;;;;;;;;;;5094614;28;20135;-88
2023/02/21 11:47:44;;;;;;;8.32;5.93;;;;;;;;;;5082485;27;20141;-88
2023/02/21 11:50:18;;;;;;;8.48;6.13;;;;;;;;;;5085760;28;20081;-89
2023/02/21 11:52:47;;;;;;;9.10;6.25;;;;;;;;;;5082469;27;20759;-89
2023/02/21 11:55:17;;;;;;;10.30;7.15;;;;;;;;;;5076460;28;20100;-89
2023/02/21 11:58:02;;;;;;;12.00;7.93;;;;;;;;;;5060073;28;20112;-89
2023/02/21 12:01:01;;;;;;;11.85;7.13;;;;;;;;;;5060729;28;20063;-88
2023/02/21 12:03:36;;;;;;;10.48;7.65;;;;;;;;;;5073765;28;20024;-87
2023/02/21 12:06:08;;;;;;;9.23;5.60;;;;;;;;;;5062537;28;20075;-88
2023/02/21 12:08:38;;;;;;;8.82;6.18;;;;;;;;;;5061825;28;20470;-86
2023/02/21 12:11:07;;;;;;;8.02;6.22;;;;;;;;;;5064577;28;20027;-88
2023/02/21 12:13:40;;;;;;;13.35;7.22;;;;;;;;;;5061575;28;20170;-88
2023/02/21 12:16:38;;;;;;;9.55;6.80;;;;;;;;;;5066412;28;20028;-89
2023/02/21 12:19:11;;;;;;;7.85;5.75;;;;;;;;;;5001187;28;20052;-87
2023/02/21 12:21:47;;;;;;;9.93;6.47;;;;;;;;;;5073106;28;20573;-88
2023/02/21 12:24:20;;;;;;;10.27;7.07;;;;;;;;;;5073870;28;20113;-89
2023/02/21 12:27:03;;;;;;;8.82;6.75;;;;;;;;;;5057411;28;20054;-88
2023/02/21 12:29:29;;;;;;;5.85;4.38;;;;;;;;;;5060377;28;20100;-88
2023/02/21 12:31:58;;;;;;;6.00;3.78;;;;;;;;;;5062099;28;20020;-89
2023/02/21 12:34:41;;;;;;;6.80;3.58;;;;;;;;;;5074077;28;20024;-87
2023/02/21 12:37:07;;;;;;;;;;;;;;;;;;5089204;28;20058;-86
2023/02/21 12:39:33;;;;;;;7.25;3.60;;;;;;;;;;5052760;28;19911;-87
2023/02/21 12:41:59;;;;;;;4.10;3.15;;;;;;;;;;5071534;28;20143;-88
2023/02/21 12:44:32;;;;;;;6.28;3.15;;;;;;;;;;5062894;28;20075;-90
2023/02/21 12:47:05;;;;;;;4.18;2.97;;;;;;;;;;5062598;28;20020;-86
2023/02/21 12:49:39;;;;;;;5.47;3.13;;;;;;;;;;5058907;28;20488;-88
2023/02/21 12:52:14;;;;;;;4.55;3.10;;;;;;;;;;5067896;28;20028;-87
2023/02/21 12:54:40;;;;;;;5.43;3.08;;;;;;;;;;5060431;28;20498;-87
2023/02/21 12:57:15;;;;;;;5.80;3.55;;;;;;;;;;5091905;28;20027;-87
2023/02/21 12:59:54;;;;;;;4.15;2.55;;;;;;;;;;5090798;28;20020;-86
2023/02/21 13:02:26;;;;;;;10.88;2.88;;;;;;;;;;5091292;28;20400;-87
2023/02/21 13:05:02;;;;;;;3.83;3.10;;;;;;;;;;5070969;28;20039;-87
2023/02/21 13:07:38;;;;;;;4.63;3.10;;;;;;;;;;5075585;28;20024;-86
2023/02/21 13:10:23;;;;;;;5.40;3.30;;;;;;;;;;5081790;28;20052;-87
2023/02/21 13:13:02;;;;;;;5.93;3.28;;;;;;;;;;5079298;28;20019;-87
2023/02/21 13:15:29;;;;;;;7.22;3.33;;;;;;;;;;5072814;28;20230;-87
2023/02/21 13:18:07;;;;;;;4.05;3.05;;;;;;;;;;5065853;28;20107;-87
2023/02/21 13:20:45;;;;;;;5.03;3.17;;;;;;;;;;5066007;28;20305;-86
2023/02/21 13:23:11;;;;;;;7.13;3.20;;;;;;;;;;5078255;28;20139;-87
2023/02/21 13:25:52;;;;;;;4.53;2.95;;;;;;;;;;5093554;27;20020;-86
2023/02/21 13:28:23;;;;;;;5.10;2.90;;;;;;;;;;5083249;28;20485;-87
2023/02/21 13:30:57;;;;;;;3.22;2.30;;;;;;;;;;5106375;27;20382;-87
2023/02/21 13:33:43;;;;;;;3.95;2.70;;;;;;;;;;5081896;28;20242;-86
2023/02/21 13:36:31;;;;;;;6.70;2.78;;;;;;;;;;5078164;28;20027;-87
2023/02/21 13:39:09;;;;;;;4.15;2.97;;;;;;;;;;5081313;28;20217;-86
2023/02/21 13:41:56;;;;;;;4.30;2.75;;;;;;;;;;5073826;28;20038;-87
2023/02/21 13:44:22;;;;;;;4.15;2.88;;;;;;;;;;5071501;28;20034;-87
2023/02/21 13:46:48;;;;;;;5.85;2.60;;;;;;;;;;5080601;28;20501;-87
2023/02/21 13:49:33;;;;;;;3.33;2.53;;;;;;;;;;5071194;28;20024;-87
2023/02/21 13:52:19;;;;;;;6.82;3.30;;;;;;;;;;5066804;27;20023;-87
2023/02/21 13:55:03;;;;;;;4.75;3.85;;;;;;;;;;5078686;28;20178;-85
2023/02/21 13:57:31;;;;;;;4.18;3.10;;;;;;;;;;5079213;28;20050;-87
2023/02/21 13:59:57;;;;;;;5.68;3.42;;;;;;;;;;5084002;28;20413;-86
2023/02/21 14:02:31;;;;;;;5.68;3.30;;;;;;;;;;5080355;28;20592;-84
2023/02/21 14:05:03;;;;;;;4.47;3.10;;;;;;;;;;5072414;28;20363;-85
2023/02/21 14:07:46;;;;;;;4.05;3.00;;;;;;;;;;5097084;28;20821;-88
2023/02/21 14:10:41;;;;;;;5.10;3.00;;;;;;;;;;5080322;28;20786;-86
2023/02/21 14:13:17;;;;;;;6.78;3.30;;;;;;;;;;5058543;28;20092;-88
2023/02/21 14:15:45;;;;;;;6.57;2.80;;;;;;;;;;5078886;28;20027;-86
2023/02/21 14:18:31;;;;;;;3.88;2.90;;;;;;;;;;5091001;28;20023;-86
2023/02/21 14:20:58;;;;;;;4.53;3.05;;;;;;;;;;5072754;28;20040;-85
2023/02/21 14:23:31;;;;;;;5.35;3.15;;;;;;;;;;5076823;28;20024;-87
2023/02/21 14:25:59;;;;;;;5.80;3.20;;;;;;;;;;5082026;28;20020;-85
2023/02/21 14:28:44;;;;;;;4.05;2.83;;;;;;;;;;5080781;28;20019;-87
2023/02/21 14:31:12;;;;;;;4.32;3.28;;;;;;;;;;5093264;28;20602;-86
2023/02/21 14:33:38;;;;;;;5.57;3.30;;;;;;;;;;5082627;28;20020;-86
2023/02/21 14:36:07;;;;;;;6.22;3.67;;;;;;;;;;5088506;28;20028;-87
2023/02/21 14:38:37;;;;;;;6.32;3.53;;;;;;;;;;5075107;28;20027;-87
2023/02/21 14:41:19;;;;;;;5.28;3.72;;;;;;;;;;5088764;28;20031;-86
2023/02/21 14:43:48;;;;;;;6.65;3.00;;;;;;;;;;5077358;28;20038;-87
2023/02/21 14:46:24;;;;;;;4.57;3.13;;;;;;;;;;5082630;28;20047;-84
2023/02/21 14:49:09;;;;;;;6.10;3.35;;;;;;;;;;5095721;28;20374;-86
2023/02/21 14:52:04;;;;;;;9.02;3.65;;;;;;;;;;5090436;27;20034;-85
2023/02/21 14:54:35;;;;;;;3.92;3.28;;;;;;;;;;5073902;28;20024;-88
2023/02/21 14:57:34;;;;;;;5.20;3.37;;;;;;;;;;5056173;28;20028;-86
2023/02/21 15:00:19;;;;;;;6.85;3.90;;;;;;;;;;5044518;28;20040;-88
2023/02/21 15:02:56;;;;;;;5.18;3.60;;;;;;;;;;5058157;28;20109;-85
2023/02/21 15:05:28;;;;;;;7.72;3.78;;;;;;;;;;5061996;28;20039;-84
2023/02/21 15:08:00;;;;;;;5.22;3.88;;;;;;;;;;5060110;28;20363;-85
2023/02/21 15:10:28;;;;;;;5.82;3.88;;;;;;;;;;5058129;28;20036;-87
2023/02/21 15:13:01;;;;;;;5.35;4.05;;;;;;;;;;5057756;28;20031;-86
2023/02/21 15:15:41;;;;;;;4.40;3.28;;;;;;;;;;5055768;28;20024;-86
2023/02/21 15:18:25;;;;;;;4.13;3.60;;;;;;;;;;5054980;28;20406;-87
2023/02/21 15:21:05;;;;;;;5.47;3.45;;;;;;;;;;5058291;28;20040;-88
2023/02/21 15:23:33;;;;;;;5.32;4.00;;;;;;;;;;5056144;28;20245;-88
2023/02/21 15:26:01;;;;;;;5.28;3.72;;;;;;;;;;5061477;28;20536;-88
2023/02/21 15:28:29;;;;;;;5.32;4.07;;;;;;;;;;5089471;28;20028;-86
2023/02/21 15:31:00;;;;;;;7.55;4.47;;;;;;;;;;5060968;28;20024;-87
2023/02/21 15:33:28;;;;;;;7.15;3.97;;;;;;;;;;5062764;28;20081;-88
2023/02/21 15:35:59;;;;;;;5.10;3.78;;;;;;;;;;5057765;28;20557;-88
2023/02/21 15:38:31;;;;;;;8.68;3.78;;;;;;;;;;5060624;28;20063;-85
2023/02/21 15:40:57;;;;;;;;;;;;;;;;;;5060077;28;20077;-87
2023/02/21 15:43:30;;;;;;;7.72;4.00;;;;;;;;;;5057303;28;19911;-86
2023/02/21 15:45:58;;;;;;;8.57;3.88;;;;;;;;;;5057541;28;20148;-86
2023/02/21 15:48:24;;;;;;;8.90;3.90;;;;;;;;;;5073221;28;20028;-87
2023/02/21 15:50:51;;;;;;;4.50;3.50;;;;;;;;;;5061797;28;20028;-86
2023/02/21 15:53:19;;;;;;;7.82;4.07;;;;;;;;;;5059275;28;20039;-88
2023/02/21 15:55:46;;;;;;;5.28;3.35;;;;;;;;;;5060407;28;20044;-88
2023/02/21 15:58:13;;;;;;;6.10;3.75;;;;;;;;;;5060317;28;20036;-88
2023/02/21 16:00:40;;;;;;;4.90;3.78;;;;;;;;;;5060441;28;20032;-88
2023/02/21 16:03:25;;;;;;;4.40;3.55;;;;;;;;;;5056386;28;20540;-88
2023/02/21 16:05:51;;;;;;;5.90;3.70;;;;;;;;;;5058967;28;20102;-87
2023/02/21 16:08:18;;;;;;;5.95;3.58;;;;;;;;;;5055088;28;20024;-86
2023/02/21 16:10:45;;;;;;;6.68;3.72;;;;;;;;;;5059368;28;20454;-85
2023/02/21 16:13:11;;;;;;;6.90;3.85;;;;;;;;;;5058034;28;20449;-87
2023/02/21 16:15:39;;;;;;;4.85;3.80;;;;;;;;;;5071238;28;20027;-86
2023/02/21 16:18:07;;;;;;;7.15;3.28;;;;;;;;;;5067352;28;20035;-87
2023/02/21 16:20:33;;;;;;;5.22;3.97;;;;;;;;;;5061963;28;20036;-88
2023/02/21 16:23:14;;;;;;;6.95;3.40;;;;;;;;;;5058474;28;20513;-88
2023/02/21 16:25:59;;;;;;;5.05;3.67;;;;;;;;;;5050274;28;20027;-88
2023/02/21 16:28:26;;;;;;;6.90;4.35;;;;;;;;;;5061108;28;20104;-87
2023/02/21 16:30:54;;;;;;;7.53;3.65;;;;;;;;;;5064616;28;20294;-87
2023/02/21 16:33:21;;;;;;;15.35;3.97;;;;;;;;;;5058360;28;20404;-88
2023/02/21 16:35:47;;;;;;;6.25;3.75;;;;;;;;;;5080456;28;20418;-87
2023/02/21 16:38:17;;;;;;;7.47;4.25;;;;;;;;;;5057979;28;20077;-88
2023/02/21 16:40:43;;;;;;;8.43;4.15;;;;;;;;;;5076673;28;20497;-87
2023/02/21 16:43:17;;;;;;;7.07;4.05;;;;;;;;;;5057547;28;20328;-88
2023/02/21 16:45:43;;;;;;;7.95;4.40;;;;;;;;;;5056309;28;20535;-87
2023/02/21 16:48:15;;;;;;;6.22;4.13;;;;;;;;;;5060865;28;20028;-87
2023/02/21 16:50:42;;;;;;;5.28;3.95;;;;;;;;;;5059779;28;20028;-88
2023/02/21 16:53:14;;;;;;;7.00;4.50;;;;;;;;;;5058023;28;20478;-87
2023/02/21 16:55:44;;;;;;;6.45;4.70;;;;;;;;;;5073612;28;20048;-87
2023/02/21 16:58:25;;;;;;;6.65;3.90;;;;;;;;;;5057265;28;20024;-87
2023/02/21 17:00:52;;;;;;;6.22;4.55;;;;;;;;;;5059494;28;20032;-88
2023/02/21 17:03:18;;;;;;;7.97;4.28;;;;;;;;;;5057238;28;20239;-89
2023/02/21 17:05:45;;;;;;;5.53;4.45;;;;;;;;;;5089819;28;20028;-88
2023/02/21 17:08:11;;;;;;;6.53;4.50;;;;;;;;;;5049314;28;20031;-87
2023/02/21 17:10:38;;;;;;;7.32;5.32;;;;;;;;;;5059061;28;20024;-86
2023/02/21 17:13:04;;;;;;;7.55;4.35;;;;;;;;;;5054221;28;20035;-87